createdAt,value
2023-05-06T00:01:41.265Z,37.90
2023-05-06T00:04:08.084Z,37.08
2023-05-06T00:06:34.952Z,36.51
2023-05-06T00:09:01.752Z,36.47
2023-05-06T00:11:28.562Z,36.30
2023-05-06T00:13:55.386Z,35.96
2023-05-06T00:16:22.206Z,35.85
2023-05-06T00:18:49.025Z,35.76
2023-05-06T00:21:15.905Z,35.72
2023-05-06T00:23:42.704Z,35.87
2023-05-06T00:26:09.462Z,35.73
2023-05-06T00:28:36.372Z,35.46
2023-05-06T00:31:03.178Z,35.33
2023-05-06T00:33:29.994Z,35.20
2023-05-06T00:35:56.811Z,35.36
2023-05-06T00:38:23.564Z,35.05
2023-05-06T00:40:50.796Z,36.24
2023-05-06T00:43:17.619Z,37.64
2023-05-06T00:45:44.411Z,38.06
2023-05-06T00:48:11.235Z,41.39
2023-05-06T00:50:38.052Z,38.98
2023-05-06T00:53:04.795Z,38.07
2023-05-06T00:55:31.592Z,36.94
2023-05-06T00:57:58.432Z,36.98
2023-05-06T01:00:25.529Z,36.48
2023-05-06T01:02:52.424Z,36.30
2023-05-06T01:05:20.885Z,36.44
2023-05-06T01:07:47.730Z,36.21
2023-05-06T01:10:18.701Z,35.76
2023-05-06T01:12:45.545Z,35.67
2023-05-06T01:15:12.415Z,36.04
2023-05-06T01:17:39.244Z,35.83
2023-05-06T01:20:06.261Z,35.49
2023-05-06T01:22:33.317Z,35.43
2023-05-06T01:25:00.192Z,35.63
2023-05-06T01:27:27.007Z,35.46
2023-05-06T01:29:53.799Z,38.08
2023-05-06T01:32:21.675Z,37.52
2023-05-06T01:34:48.501Z,40.89
2023-05-06T01:37:15.349Z,40.57
2023-05-06T01:39:42.120Z,38.59
2023-05-06T01:42:08.887Z,37.84
2023-05-06T01:44:36.018Z,37.18
2023-05-06T01:47:02.838Z,36.81
2023-05-06T01:49:29.613Z,36.77
2023-05-06T01:51:56.421Z,36.56
2023-05-06T01:54:23.243Z,36.40
2023-05-06T01:56:50.017Z,36.44
2023-05-06T01:59:16.783Z,36.25
2023-05-06T02:01:43.687Z,36.21
2023-05-06T02:04:10.518Z,35.93
2023-05-06T02:06:37.310Z,36.05
2023-05-06T02:09:04.128Z,35.79
2023-05-06T02:11:30.923Z,35.82
2023-05-06T02:13:58.212Z,35.74
2023-05-06T02:16:25.009Z,36.35
2023-05-06T02:18:52.219Z,37.83
2023-05-06T02:21:19.011Z,36.92
2023-05-06T02:23:45.782Z,41.82
2023-05-06T02:26:12.574Z,39.71
2023-05-06T02:28:39.325Z,38.38
2023-05-06T02:31:06.169Z,37.53
2023-05-06T02:33:33.048Z,37.15
2023-05-06T02:35:59.774Z,37.16
2023-05-06T02:38:26.677Z,36.70
2023-05-06T02:40:53.459Z,36.29
2023-05-06T02:43:20.216Z,36.48
2023-05-06T02:45:46.971Z,36.51
2023-05-06T02:48:13.813Z,36.61
2023-05-06T02:50:41.051Z,36.43
2023-05-06T02:53:09.247Z,36.27
2023-05-06T02:55:36.293Z,36.11
2023-05-06T02:58:03.086Z,35.69
2023-05-06T03:00:29.880Z,35.98
2023-05-06T03:02:56.689Z,35.71
2023-05-06T03:05:23.455Z,37.93
2023-05-06T03:07:50.216Z,38.03
2023-05-06T03:10:17.045Z,39.67
2023-05-06T03:12:43.878Z,41.56
2023-05-06T03:15:11.068Z,39.33
2023-05-06T03:17:38.244Z,38.40
2023-05-06T03:20:05.438Z,37.71
2023-05-06T03:22:32.196Z,37.42
2023-05-06T03:24:58.973Z,37.09
2023-05-06T03:27:25.726Z,36.88
2023-05-06T03:29:52.537Z,36.86
2023-05-06T03:32:19.326Z,36.50
2023-05-06T03:34:46.066Z,36.58
2023-05-06T03:37:12.825Z,36.44
2023-05-06T03:39:39.601Z,36.43
2023-05-06T03:42:08.610Z,36.42
2023-05-06T03:44:36.250Z,35.90
2023-05-06T03:47:03.140Z,35.90
2023-05-06T03:49:29.918Z,36.04
2023-05-06T03:51:56.867Z,38.04
2023-05-06T03:54:23.627Z,37.47
2023-05-06T03:56:50.453Z,40.86
2023-05-06T03:59:17.303Z,41.07
2023-05-06T04:01:44.110Z,39.24
2023-05-06T04:04:10.932Z,38.03
2023-05-06T04:06:37.706Z,37.58
2023-05-06T04:09:06.379Z,37.58
2023-05-06T04:11:33.189Z,37.08
2023-05-06T04:13:59.973Z,37.06
2023-05-06T04:16:26.810Z,36.86
2023-05-06T04:18:53.610Z,36.95
2023-05-06T04:21:20.354Z,36.47
2023-05-06T04:23:47.548Z,36.69
2023-05-06T04:26:14.332Z,36.43
2023-05-06T04:28:41.103Z,36.24
2023-05-06T04:31:08.930Z,36.18
2023-05-06T04:33:35.779Z,36.15
2023-05-06T04:36:03.344Z,36.24
2023-05-06T04:38:31.929Z,37.72
2023-05-06T04:40:59.350Z,37.87
2023-05-06T04:43:27.465Z,39.39
2023-05-06T04:45:55.184Z,42.05
2023-05-06T04:48:22.331Z,39.65
2023-05-06T04:50:49.141Z,38.48
2023-05-06T04:53:15.950Z,38.09
2023-05-06T04:55:42.709Z,37.56
2023-05-06T04:58:09.469Z,37.49
2023-05-06T05:00:36.242Z,36.99
2023-05-06T05:03:03.106Z,37.33
2023-05-06T05:05:30.337Z,37.17
2023-05-06T05:07:57.234Z,36.79
2023-05-06T05:10:24.009Z,36.67
2023-05-06T05:12:50.851Z,36.58
2023-05-06T05:15:17.717Z,36.60
2023-05-06T05:17:44.537Z,36.15
2023-05-06T05:20:11.296Z,36.20
2023-05-06T05:22:38.395Z,36.17
2023-05-06T05:25:06.338Z,36.54
2023-05-06T05:27:34.522Z,38.02
2023-05-06T05:30:01.628Z,37.82
2023-05-06T05:32:28.511Z,41.94
2023-05-06T05:34:55.419Z,40.60
2023-05-06T05:37:22.282Z,38.91
2023-05-06T05:39:49.062Z,38.15
2023-05-06T05:42:15.801Z,37.73
2023-05-06T05:44:42.553Z,37.43
2023-05-06T05:47:09.510Z,37.23
2023-05-06T05:49:36.274Z,37.05
2023-05-06T05:52:03.499Z,37.12
2023-05-06T05:54:30.265Z,36.92
2023-05-06T05:56:57.877Z,36.98
2023-05-06T05:59:24.638Z,36.76
2023-05-06T06:01:51.388Z,36.63
2023-05-06T06:04:18.285Z,36.69
2023-05-06T06:06:45.096Z,36.66
2023-05-06T06:09:11.974Z,36.58
2023-05-06T06:11:38.732Z,36.63
2023-05-06T06:14:05.486Z,38.60
2023-05-06T06:16:32.343Z,38.11
2023-05-06T06:18:59.155Z,42.04
2023-05-06T06:21:25.930Z,41.64
2023-05-06T06:23:52.675Z,39.57
2023-05-06T06:26:19.490Z,38.46
2023-05-06T06:28:46.250Z,38.07
2023-05-06T06:31:13.069Z,37.80
2023-05-06T06:33:39.840Z,37.63
2023-05-06T06:36:06.726Z,37.45
2023-05-06T06:38:33.547Z,36.97
2023-05-06T06:41:00.403Z,37.10
2023-05-06T06:43:27.162Z,37.01
2023-05-06T06:45:53.934Z,36.88
2023-05-06T06:48:20.745Z,36.87
2023-05-06T06:50:47.563Z,36.68
2023-05-06T06:53:14.328Z,36.54
2023-05-06T06:55:41.069Z,36.52
2023-05-06T06:58:07.816Z,36.39
2023-05-06T07:00:34.595Z,37.23
2023-05-06T07:03:01.377Z,38.87
2023-05-06T07:05:28.275Z,37.98
2023-05-06T07:07:55.569Z,42.55
2023-05-06T07:10:22.458Z,41.06
2023-05-06T07:12:49.242Z,39.13
2023-05-06T07:15:16.049Z,38.58
2023-05-06T07:17:42.866Z,37.96
2023-05-06T07:20:09.716Z,38.04
2023-05-06T07:22:36.961Z,37.70
2023-05-06T07:25:03.730Z,37.34
2023-05-06T07:27:30.765Z,37.09
2023-05-06T07:29:57.600Z,37.39
2023-05-06T07:32:24.374Z,37.16
2023-05-06T07:34:51.169Z,37.00
2023-05-06T07:37:17.917Z,37.12
2023-05-06T07:39:44.891Z,36.72
2023-05-06T07:42:13.072Z,36.83
2023-05-06T07:44:40.005Z,36.83
2023-05-06T07:47:06.901Z,38.66
2023-05-06T07:49:34.961Z,38.54
2023-05-06T07:52:03.413Z,41.22
2023-05-06T07:54:31.510Z,42.62
2023-05-06T07:56:58.331Z,40.44
2023-05-06T07:59:25.160Z,39.15
2023-05-06T08:01:52.052Z,38.52
2023-05-06T08:04:18.887Z,38.20
2023-05-06T08:06:45.702Z,38.11
2023-05-06T08:09:14.859Z,37.97
2023-05-06T08:11:46.663Z,37.54
2023-05-06T08:14:13.408Z,37.68
2023-05-06T08:16:40.226Z,37.26
2023-05-06T08:19:07.093Z,37.30
2023-05-06T08:21:34.106Z,37.35
2023-05-06T08:24:00.890Z,37.04
2023-05-06T08:26:27.670Z,37.13
2023-05-06T08:28:56.065Z,36.84
2023-05-06T08:31:22.811Z,37.03
2023-05-06T08:33:49.624Z,36.84
2023-05-06T08:36:16.365Z,38.67
2023-05-06T08:38:48.942Z,41.98
2023-05-06T08:41:15.713Z,42.84
2023-05-06T08:43:42.533Z,39.98
2023-05-06T08:46:09.479Z,38.94
2023-05-06T08:48:37.348Z,38.20
2023-05-06T08:51:04.164Z,37.89
2023-05-06T08:53:30.921Z,37.69
2023-05-06T08:55:57.693Z,37.36
2023-05-06T08:58:24.492Z,37.38
2023-05-06T09:00:51.386Z,37.09
2023-05-06T09:03:18.407Z,37.21
2023-05-06T09:05:45.254Z,37.18
2023-05-06T09:08:12.103Z,36.96
2023-05-06T09:10:38.937Z,37.03
2023-05-06T09:13:05.956Z,36.80
2023-05-06T09:15:32.730Z,36.79
2023-05-06T09:17:59.599Z,40.22
2023-05-06T09:20:26.761Z,43.05
2023-05-06T09:22:53.837Z,41.12
2023-05-06T09:25:20.645Z,39.62
2023-05-06T09:27:47.392Z,38.49
2023-05-06T09:30:14.333Z,37.97
2023-05-06T09:32:41.847Z,37.87
2023-05-06T09:35:08.933Z,37.64
2023-05-06T09:37:36.199Z,37.70
2023-05-06T09:40:03.115Z,37.42
2023-05-06T09:42:29.916Z,37.48
2023-05-06T09:44:58.110Z,37.16
2023-05-06T09:47:26.020Z,37.19
2023-05-06T09:49:52.786Z,37.05
2023-05-06T09:52:20.661Z,38.72
2023-05-06T09:54:47.520Z,41.73
2023-05-06T09:57:15.148Z,42.99
2023-05-06T09:59:41.884Z,40.23
2023-05-06T10:02:08.704Z,39.03
2023-05-06T10:04:35.858Z,38.25
2023-05-06T10:07:02.960Z,37.63
2023-05-06T10:09:29.719Z,37.68
2023-05-06T10:11:56.507Z,37.34
2023-05-06T10:14:23.274Z,37.71
2023-05-06T10:16:50.066Z,37.68
2023-05-06T10:19:16.815Z,37.34
2023-05-06T10:21:43.555Z,37.40
2023-05-06T10:24:10.342Z,37.04
2023-05-06T10:26:37.364Z,37.11
2023-05-06T10:29:04.758Z,36.68
2023-05-06T10:31:31.565Z,40.00
2023-05-06T10:33:58.342Z,42.94
2023-05-06T10:36:25.203Z,42.36
2023-05-06T10:38:54.598Z,39.51
2023-05-06T10:41:22.111Z,38.56
2023-05-06T10:43:56.600Z,38.16
2023-05-06T10:46:23.568Z,38.18
2023-05-06T10:48:50.316Z,38.16
2023-05-06T10:51:17.124Z,37.73
2023-05-06T10:53:43.855Z,37.61
2023-05-06T10:56:10.621Z,37.80
2023-05-06T10:58:37.386Z,37.75
2023-05-06T11:01:04.179Z,37.21
2023-05-06T11:03:30.994Z,37.25
2023-05-06T11:05:57.810Z,37.20
2023-05-06T11:08:24.682Z,40.34
2023-05-06T11:10:51.745Z,42.97
2023-05-06T11:13:18.971Z,42.46
2023-05-06T11:15:46.300Z,39.75
2023-05-06T11:18:13.051Z,39.01
2023-05-06T11:20:39.807Z,38.60
2023-05-06T11:23:06.621Z,38.07
2023-05-06T11:25:33.376Z,38.27
2023-05-06T11:28:00.430Z,37.67
2023-05-06T11:30:27.173Z,37.79
2023-05-06T11:32:53.960Z,37.76
2023-05-06T11:35:22.791Z,37.64
2023-05-06T11:37:49.576Z,37.79
2023-05-06T11:40:16.449Z,37.46
2023-05-06T11:42:43.241Z,37.28
2023-05-06T11:45:10.041Z,38.12
2023-05-06T11:47:36.776Z,41.40
2023-05-06T11:50:07.285Z,43.29
2023-05-06T11:52:34.068Z,41.46
2023-05-06T11:55:00.851Z,39.34
2023-05-06T11:57:27.613Z,38.96
2023-05-06T11:59:55.809Z,38.61
2023-05-06T12:02:22.650Z,38.21
2023-05-06T12:04:53.079Z,38.11
2023-05-06T12:07:19.921Z,37.95
2023-05-06T12:09:46.973Z,37.91
2023-05-06T12:12:13.764Z,38.02
2023-05-06T12:14:40.611Z,37.85
2023-05-06T12:17:07.376Z,37.47
2023-05-06T12:19:34.143Z,37.62
2023-05-06T12:22:01.050Z,37.53
2023-05-06T12:24:28.953Z,39.75
2023-05-06T12:26:56.050Z,42.79
2023-05-06T12:29:22.794Z,42.68
2023-05-06T12:31:49.642Z,40.12
2023-05-06T12:34:17.725Z,39.27
2023-05-06T12:36:44.509Z,38.71
2023-05-06T12:39:14.117Z,38.67
2023-05-06T12:41:41.043Z,38.22
2023-05-06T12:44:07.812Z,38.37
2023-05-06T12:46:34.621Z,38.14
2023-05-06T12:49:01.692Z,38.07
2023-05-06T12:51:28.742Z,37.86
2023-05-06T12:53:55.557Z,37.82
2023-05-06T12:56:22.423Z,37.80
2023-05-06T12:58:49.170Z,38.09
2023-05-06T13:01:16.007Z,41.86
2023-05-06T13:03:42.803Z,43.72
2023-05-06T13:06:09.615Z,41.70
2023-05-06T13:08:36.411Z,39.94
2023-05-06T13:11:03.729Z,39.30
2023-05-06T13:13:30.820Z,38.83
2023-05-06T13:15:57.594Z,38.56
2023-05-06T13:18:24.381Z,38.28
2023-05-06T13:20:51.535Z,38.21
2023-05-06T13:23:19.308Z,38.30
2023-05-06T13:26:00.730Z,37.86
2023-05-06T13:28:30.056Z,37.67
2023-05-06T13:30:56.929Z,38.17
2023-05-06T13:33:23.722Z,38.10
2023-05-06T13:35:50.525Z,37.77
2023-05-06T13:38:17.306Z,41.13
2023-05-06T13:40:44.051Z,43.34
2023-05-06T13:43:11.305Z,42.28
2023-05-06T13:45:38.217Z,40.19
2023-05-06T13:48:05.053Z,39.36
2023-05-06T13:50:31.852Z,38.96
2023-05-06T13:52:58.623Z,38.71
2023-05-06T13:55:25.545Z,38.69
2023-05-06T13:57:52.315Z,38.29
2023-05-06T14:00:19.074Z,38.27
2023-05-06T14:02:45.961Z,37.93
2023-05-06T14:05:13.072Z,38.10
2023-05-06T14:07:40.607Z,38.01
2023-05-06T14:10:07.436Z,37.93
2023-05-06T14:12:34.267Z,37.85
2023-05-06T14:15:01.253Z,39.59
2023-05-06T14:17:28.026Z,42.95
2023-05-06T14:19:54.804Z,44.07
2023-05-06T14:22:21.581Z,40.97
2023-05-06T14:24:48.459Z,39.75
2023-05-06T14:27:15.358Z,39.21
2023-05-06T14:29:43.098Z,39.02
2023-05-06T14:32:09.872Z,39.04
2023-05-06T14:34:36.828Z,38.42
2023-05-06T14:37:03.637Z,38.36
2023-05-06T14:39:30.492Z,38.44
2023-05-06T14:41:57.811Z,38.33
2023-05-06T14:44:24.596Z,37.96
2023-05-06T14:46:51.450Z,37.93
2023-05-06T14:49:18.273Z,37.86
2023-05-06T14:51:45.459Z,37.92
2023-05-06T14:54:12.204Z,40.86
2023-05-06T14:56:38.959Z,43.68
2023-05-06T14:59:05.759Z,42.89
2023-05-06T15:01:33.520Z,40.29
2023-05-06T15:04:00.377Z,39.56
2023-05-06T15:06:27.227Z,39.00
2023-05-06T15:08:53.991Z,38.92
2023-05-06T15:11:20.823Z,38.90
2023-05-06T15:13:47.580Z,38.69
2023-05-06T15:16:14.345Z,38.43
2023-05-06T15:18:41.944Z,38.47
2023-05-06T15:21:08.786Z,38.55
2023-05-06T15:23:35.517Z,38.34
2023-05-06T15:26:02.293Z,38.00
2023-05-06T15:28:29.062Z,38.08
2023-05-06T15:30:55.840Z,40.61
2023-05-06T15:33:22.647Z,43.54
2023-05-06T15:35:49.412Z,43.54
2023-05-06T15:38:16.157Z,40.70
2023-05-06T15:40:42.892Z,39.96
2023-05-06T15:43:09.831Z,39.28
2023-05-06T15:45:37.470Z,38.81
2023-05-06T15:48:04.230Z,38.84
2023-05-06T15:50:33.851Z,38.95
2023-05-06T15:53:01.849Z,38.65
2023-05-06T15:55:28.833Z,38.32
2023-05-06T15:57:56.284Z,38.24
2023-05-06T16:00:23.933Z,38.10
2023-05-06T16:02:50.787Z,38.18
2023-05-06T16:05:17.687Z,38.14
2023-05-06T16:07:44.463Z,39.98
2023-05-06T16:10:11.556Z,43.24
2023-05-06T16:12:38.803Z,43.75
2023-05-06T16:15:05.561Z,41.30
2023-05-06T16:17:37.271Z,39.98
2023-05-06T16:20:04.360Z,39.46
2023-05-06T16:22:31.159Z,39.08
2023-05-06T16:24:58.063Z,38.95
2023-05-06T16:27:27.356Z,38.93
2023-05-06T16:29:54.111Z,38.27
2023-05-06T16:32:20.856Z,38.69
2023-05-06T16:34:47.622Z,38.45
2023-05-06T16:37:14.473Z,38.38
2023-05-06T16:39:41.226Z,38.06
2023-05-06T16:42:07.997Z,37.93
2023-05-06T16:44:35.037Z,38.79
2023-05-06T16:47:01.976Z,39.33
2023-05-06T16:49:28.808Z,38.54
2023-05-06T16:51:57.104Z,43.36
2023-05-06T16:54:23.991Z,42.73
2023-05-06T16:56:52.672Z,41.21
2023-05-06T16:59:21.969Z,40.51
2023-05-06T17:01:49.081Z,39.91
2023-05-06T17:04:16.174Z,39.47
2023-05-06T17:06:42.898Z,39.16
2023-05-06T17:09:10.049Z,38.95
2023-05-06T17:11:36.993Z,39.12
2023-05-06T17:14:03.800Z,38.71
2023-05-06T17:16:30.568Z,38.42
2023-05-06T17:18:57.394Z,38.69
2023-05-06T17:21:24.815Z,38.68
2023-05-06T17:23:54.409Z,38.15
2023-05-06T17:26:21.342Z,38.36
2023-05-06T17:28:48.215Z,39.61
2023-05-06T17:31:15.893Z,39.89
2023-05-06T17:33:42.715Z,41.24
2023-05-06T17:36:09.444Z,43.93
2023-05-06T17:38:36.309Z,42.43
2023-05-06T17:41:03.074Z,40.93
2023-05-06T17:43:29.829Z,40.24
2023-05-06T17:45:56.882Z,39.83
2023-05-06T17:48:23.715Z,39.45
2023-05-06T17:50:50.562Z,39.35
2023-05-06T17:53:17.286Z,39.19
2023-05-06T17:55:44.110Z,38.85
2023-05-06T17:58:11.685Z,38.81
2023-05-06T18:00:38.472Z,38.65
2023-05-06T18:03:05.833Z,38.39
2023-05-06T18:05:32.674Z,38.35
2023-05-06T18:07:59.496Z,38.22
2023-05-06T18:10:26.310Z,38.36
2023-05-06T18:12:53.541Z,39.65
2023-05-06T18:15:20.293Z,39.52
2023-05-06T18:17:47.196Z,42.16
2023-05-06T18:20:13.966Z,44.50
2023-05-06T18:22:42.649Z,42.29
2023-05-06T18:25:09.565Z,40.89
2023-05-06T18:27:37.003Z,40.30
2023-05-06T18:30:04.514Z,39.82
2023-05-06T18:32:31.628Z,39.77
2023-05-06T18:34:58.488Z,39.42
2023-05-06T18:37:25.236Z,39.14
2023-05-06T18:39:52.122Z,39.04
2023-05-06T18:42:18.960Z,38.80
2023-05-06T18:44:45.752Z,38.80
2023-05-06T18:47:12.533Z,38.59
2023-05-06T18:49:39.348Z,38.16
2023-05-06T18:52:06.150Z,38.20
2023-05-06T18:54:32.956Z,38.34
2023-05-06T18:57:00.869Z,37.93
2023-05-06T18:59:27.666Z,39.40
2023-05-06T19:01:54.419Z,39.81
2023-05-06T19:04:21.203Z,39.85
2023-05-06T19:06:47.956Z,43.75
2023-05-06T19:09:14.737Z,42.75
2023-05-06T19:11:41.544Z,40.89
2023-05-06T19:14:08.642Z,40.36
2023-05-06T19:16:35.651Z,39.97
2023-05-06T19:19:03.296Z,39.38
2023-05-06T19:21:30.060Z,39.17
2023-05-06T19:23:59.652Z,39.14
2023-05-06T19:26:26.836Z,38.82
2023-05-06T19:28:53.995Z,38.89
2023-05-06T19:31:20.876Z,38.64
2023-05-06T19:33:47.662Z,38.41
2023-05-06T19:36:16.167Z,38.28
2023-05-06T19:38:42.919Z,38.26
2023-05-06T19:41:10.816Z,38.04
2023-05-06T19:43:37.555Z,38.12
2023-05-06T19:46:06.192Z,37.93
2023-05-06T19:48:34.947Z,39.60
2023-05-06T19:51:03.503Z,39.71
2023-05-06T19:53:30.260Z,41.32
2023-05-06T19:55:59.059Z,44.04
2023-05-06T19:58:26.021Z,42.02
2023-05-06T20:00:52.866Z,40.95
2023-05-06T20:03:19.787Z,40.35
2023-05-06T20:05:46.717Z,39.58
2023-05-06T20:08:13.621Z,39.46
2023-05-06T20:10:40.463Z,39.35
2023-05-06T20:13:07.446Z,38.83
2023-05-06T20:15:35.643Z,38.75
2023-05-06T20:18:02.457Z,38.69
2023-05-06T20:20:34.074Z,38.64
2023-05-06T20:23:03.871Z,38.22
2023-05-06T20:25:30.991Z,38.25
2023-05-06T20:27:57.760Z,38.21
2023-05-06T20:30:24.558Z,37.81
2023-05-06T20:32:52.047Z,37.91
2023-05-06T20:35:19.118Z,37.89
2023-05-06T20:37:45.981Z,39.71
2023-05-06T20:40:12.774Z,39.53
2023-05-06T20:42:39.564Z,40.67
2023-05-06T20:45:06.321Z,43.95
2023-05-06T20:47:33.160Z,41.98
2023-05-06T20:49:59.960Z,40.65
2023-05-06T20:52:26.890Z,40.10
2023-05-06T20:54:53.743Z,39.33
2023-05-06T20:57:20.496Z,39.47
2023-05-06T20:59:49.443Z,39.14
2023-05-06T21:02:16.251Z,38.96
2023-05-06T21:04:43.078Z,38.97
2023-05-06T21:07:09.878Z,38.75
2023-05-06T21:09:37.951Z,38.37
2023-05-06T21:12:04.873Z,38.33
2023-05-06T21:14:31.798Z,38.12
2023-05-06T21:16:58.556Z,38.15
2023-05-06T21:19:25.308Z,37.97
2023-05-06T21:21:52.053Z,37.71
2023-05-06T21:24:18.854Z,38.14
2023-05-06T21:26:45.670Z,39.43
2023-05-06T21:29:12.475Z,38.47
2023-05-06T21:31:39.306Z,44.23
2023-05-06T21:34:07.849Z,43.08
2023-05-06T21:36:34.795Z,40.86
2023-05-06T21:39:01.728Z,40.33
2023-05-06T21:41:28.483Z,39.30
2023-05-06T21:43:55.251Z,39.59
2023-05-06T21:46:22.121Z,39.07
2023-05-06T21:48:48.940Z,38.69
2023-05-06T21:51:15.798Z,38.78
2023-05-06T21:53:42.732Z,38.29
2023-05-06T21:56:09.516Z,38.26
2023-05-06T21:58:36.310Z,38.33
2023-05-06T22:01:03.813Z,38.02
2023-05-06T22:03:30.676Z,38.22
2023-05-06T22:05:57.582Z,38.17
2023-05-06T22:08:25.027Z,37.56
2023-05-06T22:10:51.826Z,37.89
2023-05-06T22:13:19.186Z,37.60
2023-05-06T22:15:46.098Z,39.35
2023-05-06T22:18:13.785Z,39.09
2023-05-06T22:20:41.517Z,44.33
2023-05-06T22:23:08.386Z,44.29
2023-05-06T22:25:35.258Z,41.55
2023-05-06T22:28:02.041Z,40.31
2023-05-06T22:30:28.827Z,40.01
2023-05-06T22:32:55.719Z,39.29
2023-05-06T22:35:22.615Z,39.10
2023-05-06T22:37:49.390Z,39.12
2023-05-06T22:40:16.129Z,38.85
2023-05-06T22:42:42.968Z,38.76
2023-05-06T22:45:09.786Z,38.60
2023-05-06T22:47:36.691Z,38.34
2023-05-06T22:50:03.563Z,38.15
2023-05-06T22:52:30.301Z,38.00
2023-05-06T22:54:57.092Z,38.16
2023-05-06T22:57:25.168Z,38.12
2023-05-06T22:59:51.985Z,38.14
2023-05-06T23:02:18.753Z,37.58
2023-05-06T23:04:45.507Z,37.42
2023-05-06T23:07:13.700Z,37.62
2023-05-06T23:09:40.576Z,37.69
2023-05-06T23:12:07.621Z,37.32
2023-05-06T23:14:34.363Z,38.85
2023-05-06T23:17:01.198Z,38.92
2023-05-06T23:19:28.025Z,40.25
2023-05-06T23:21:54.791Z,44.99
2023-05-06T23:24:21.681Z,41.84
2023-05-06T23:26:48.474Z,40.41
2023-05-06T23:29:15.269Z,39.54
2023-05-06T23:31:42.105Z,39.13
2023-05-06T23:34:08.878Z,38.92
2023-05-06T23:36:35.798Z,38.94
2023-05-06T23:39:02.697Z,38.74
2023-05-06T23:41:29.474Z,38.45
2023-05-06T23:43:56.255Z,38.20
2023-05-06T23:46:23.065Z,37.87
2023-05-06T23:48:49.915Z,37.87
2023-05-06T23:51:16.691Z,37.71
2023-05-06T23:53:43.442Z,37.82
2023-05-06T23:56:10.261Z,37.55
2023-05-06T23:58:37.129Z,37.79
